»·PEaware :: N153MS KRNO-KPSP

N153MS :: KRNO-KPSP

FLIGHT INFORMATION

Flight Status: Arrived
Operator: Privately registered:
United States
More flights under this callsign
Pilot: Shane N. (25833)
Aircraft: MOONEY M-20K/M ENCORE BRAVO
(M20T)
More flights by this aircraft type
Origin: KRNO Reno/Tahoe Intl
United States
Destination: KPSP Palm Springs Intl
United States
More flights between these airports :: More routes between these airports
Route: +RENO9 FMG TTE V459 AMONT V197 PMD V137 TRM
File this flight plan on PilotEdge
Remarks:
Altitude:
(Current/Filed)
23,000ft
Speed:
(Current/Filed)
200kts
Departed: 18-Mar-20 04:32 PM
Arrived: 18-Mar-20 06:36 PM
Distance/Time
Traveled:
375nm/2:04
Distance/Time
To Go:
Arrived

Flight Plot

Page will automatically refresh every two minutes.


Map Options




Map Legend


Flown Route
Filed Route
Departure Airport
Arrival Airport
Navaid (VOR, NDB)
Fix

Horizontal Profiles

Position Reports

Time Latitude Longitude Heading Altitude Ground
Speed
18-Mar-20 16:07 39.501386 -119.764773 89 4417ft 0kts
18-Mar-20 16:08 39.501386 -119.764773 89 4417ft 0kts
18-Mar-20 16:09 39.501386 -119.764773 89 4417ft 0kts
18-Mar-20 16:10 39.501386 -119.764773 89 4417ft 0kts
18-Mar-20 16:11 39.501386 -119.764773 89 4417ft 0kts
18-Mar-20 16:13 39.501386 -119.764773 89 4417ft 0kts
18-Mar-20 16:13 39.501386 -119.764773 89 4417ft 0kts
18-Mar-20 16:14 39.501386 -119.764773 89 4417ft 0kts
18-Mar-20 16:15 39.501386 -119.764773 89 4417ft 0kts
18-Mar-20 16:16 39.501386 -119.764773 89 4417ft 0kts
18-Mar-20 16:17 39.501386 -119.764773 89 4417ft 0kts
18-Mar-20 16:18 39.501386 -119.764773 89 4417ft 0kts
18-Mar-20 16:19 39.501386 -119.764773 89 4417ft 0kts
18-Mar-20 16:20 39.501386 -119.764773 89 4417ft 0kts
18-Mar-20 16:21 39.501386 -119.764773 89 4417ft 0kts
18-Mar-20 16:22 39.501386 -119.764773 89 4417ft 0kts
18-Mar-20 16:23 39.501386 -119.764773 89 4417ft 0kts
18-Mar-20 16:24 39.501386 -119.764773 89 4417ft 0kts
18-Mar-20 16:25 39.501619 -119.764622 284 4417ft 5kts
18-Mar-20 16:26 39.502475 -119.765730 358 4417ft 7kts
18-Mar-20 16:27 39.506118 -119.765712 359 4417ft 11kts
18-Mar-20 16:28 39.509577 -119.765713 359 4417ft 14kts
18-Mar-20 16:29 39.513598 -119.765295 320 4417ft 12kts
18-Mar-20 16:30 39.513736 -119.765664 271 4417ft 0kts
18-Mar-20 16:31 39.509736 -119.766750 177 4417ft 81kts
18-Mar-20 16:32 39.480020 -119.765318 172 5772ft 114kts
18-Mar-20 16:33 39.447280 -119.764453 176 7400ft 120kts
18-Mar-20 16:34 39.413196 -119.763026 176 9045ft 124kts
18-Mar-20 16:35 39.378541 -119.759764 178 10707ft 124kts
18-Mar-20 16:36 39.346229 -119.746254 142 12353ft 131kts
18-Mar-20 16:37 39.317259 -119.715615 142 13945ft 136kts
18-Mar-20 16:38 39.287330 -119.684313 142 15511ft 140kts
18-Mar-20 16:39 39.251323 -119.676738 186 17050ft 135kts
18-Mar-20 16:40 39.212715 -119.670268 174 18569ft 142kts
18-Mar-20 16:41 39.172689 -119.662048 174 20069ft 147kts
18-Mar-20 16:42 39.131362 -119.653560 174 21548ft 152kts
18-Mar-20 16:43 39.088423 -119.644767 174 22809ft 170kts
18-Mar-20 16:44 39.032566 -119.633582 173 22830ft 224kts
18-Mar-20 16:45 38.967891 -119.620403 173 22828ft 239kts
18-Mar-20 16:46 38.901088 -119.606756 173 22828ft 242kts
18-Mar-20 16:47 38.833921 -119.593054 173 22827ft 241kts
18-Mar-20 16:48 38.767352 -119.579494 173 22827ft 241kts
18-Mar-20 16:49 38.700821 -119.565968 173 22827ft 241kts
18-Mar-20 16:50 38.634642 -119.552541 173 22826ft 241kts
18-Mar-20 16:51 38.567987 -119.539039 173 22826ft 241kts
18-Mar-20 16:52 38.501975 -119.525693 173 22827ft 241kts
18-Mar-20 16:53 38.436425 -119.512468 173 22827ft 241kts
18-Mar-20 16:54 38.370467 -119.499182 173 22827ft 241kts
18-Mar-20 16:55 38.304089 -119.485836 173 22824ft 241kts
18-Mar-20 16:56 38.237839 -119.472541 173 22819ft 241kts
18-Mar-20 16:57 38.171504 -119.459255 173 22804ft 242kts
18-Mar-20 16:58 38.105129 -119.445984 173 22789ft 242kts
18-Mar-20 16:59 38.038781 -119.432743 173 22782ft 242kts
18-Mar-20 17:00 37.972444 -119.419528 173 22782ft 242kts
18-Mar-20 17:01 37.906142 -119.406344 173 22782ft 242kts
18-Mar-20 17:02 37.840737 -119.393367 173 22782ft 242kts
18-Mar-20 17:03 37.775800 -119.380492 174 22773ft 243kts
18-Mar-20 17:04 37.709586 -119.367408 174 22773ft 243kts
18-Mar-20 17:05 37.643365 -119.354335 174 22773ft 244kts
18-Mar-20 17:06 37.577192 -119.341294 175 22773ft 243kts
18-Mar-20 17:07 37.511796 -119.328429 175 22785ft 243kts
18-Mar-20 17:08 37.445307 -119.315375 175 22790ft 243kts
18-Mar-20 17:09 37.378996 -119.302380 175 22785ft 243kts
18-Mar-20 17:10 37.312090 -119.289292 175 22777ft 243kts
18-Mar-20 17:11 37.245487 -119.276283 175 22793ft 242kts
18-Mar-20 17:12 37.179233 -119.263366 175 22849ft 241kts
18-Mar-20 17:13 37.112993 -119.250478 175 22897ft 241kts
18-Mar-20 17:14 37.046300 -119.237527 174 22893ft 245kts
18-Mar-20 17:15 36.978330 -119.224350 174 22885ft 249kts
18-Mar-20 17:16 36.909081 -119.210944 174 22889ft 251kts
18-Mar-20 17:17 36.840123 -119.197619 174 22900ft 251kts
18-Mar-20 17:18 36.771432 -119.184372 174 22915ft 251kts
18-Mar-20 17:19 36.702704 -119.171143 174 22916ft 252kts
18-Mar-20 17:20 36.633894 -119.157924 174 22916ft 252kts
18-Mar-20 17:21 36.565516 -119.144809 174 22916ft 252kts
18-Mar-20 17:22 36.496369 -119.131571 174 22917ft 252kts
18-Mar-20 17:24 36.427692 -119.118447 174 22919ft 252kts
18-Mar-20 17:25 36.359086 -119.105358 174 22922ft 252kts
18-Mar-20 17:26 36.289784 -119.092163 174 22925ft 252kts
18-Mar-20 17:27 36.222288 -119.079333 174 22926ft 252kts
18-Mar-20 17:28 36.153091 -119.066203 174 22926ft 252kts
18-Mar-20 17:29 36.083674 -119.053056 174 22927ft 253kts
18-Mar-20 17:30 36.014361 -119.039950 174 22928ft 253kts
18-Mar-20 17:31 35.945384 -119.026932 174 22928ft 252kts
18-Mar-20 17:32 35.880114 -119.008627 166 22926ft 253kts
18-Mar-20 17:33 35.817919 -118.985997 166 22924ft 251kts
18-Mar-20 17:34 35.755784 -118.963297 166 22917ft 249kts
18-Mar-20 17:35 35.687031 -118.938218 167 22910ft 246kts
18-Mar-20 17:36 35.620371 -118.913945 167 22908ft 244kts
18-Mar-20 17:37 35.555910 -118.890514 167 22908ft 241kts
18-Mar-20 17:38 35.492148 -118.867334 167 22909ft 239kts
18-Mar-20 17:39 35.428596 -118.844193 166 22908ft 237kts
18-Mar-20 17:39 35.376205 -118.825146 166 22908ft 236kts
18-Mar-20 17:41 35.303384 -118.798711 166 22908ft 234kts
18-Mar-20 17:42 35.241595 -118.776318 166 22905ft 233kts
18-Mar-20 17:43 35.181133 -118.748968 146 22902ft 238kts
18-Mar-20 17:44 35.130831 -118.696281 140 22885ft 239kts
18-Mar-20 17:44 35.089991 -118.650584 140 22877ft 239kts
18-Mar-20 17:46 35.033171 -118.586800 140 22872ft 239kts
18-Mar-20 17:47 34.986611 -118.527796 135 22872ft 242kts
18-Mar-20 17:47 34.948265 -118.477446 135 22867ft 246kts
18-Mar-20 17:48 34.901565 -118.416193 134 22858ft 250kts
18-Mar-20 17:50 34.846515 -118.344141 134 22583ft 259kts
18-Mar-20 17:50 34.805277 -118.290281 134 21836ft 263kts
18-Mar-20 17:51 34.756631 -118.226830 134 20839ft 258kts
18-Mar-20 17:53 34.700268 -118.153440 134 19668ft 254kts
18-Mar-20 17:53 34.660458 -118.101697 134 18831ft 251kts
18-Mar-20 17:54 34.619144 -118.036259 119 17832ft 243kts
18-Mar-20 17:55 34.586824 -117.966226 118 16836ft 237kts
18-Mar-20 17:56 34.555101 -117.896823 118 15835ft 233kts
18-Mar-20 17:57 34.523922 -117.828716 118 14840ft 230kts
18-Mar-20 17:58 34.493249 -117.761853 118 14029ft 223kts
18-Mar-20 17:59 34.463276 -117.696535 118 14018ft 224kts
18-Mar-20 18:00 34.432618 -117.629988 118 14014ft 227kts
18-Mar-20 18:01 34.401845 -117.563298 118 14010ft 227kts
18-Mar-20 18:03 34.365821 -117.485382 118 14014ft 227kts
18-Mar-20 18:03 34.340198 -117.430069 118 14011ft 227kts
18-Mar-20 18:04 34.309234 -117.363329 118 14016ft 227kts
18-Mar-20 18:05 34.278223 -117.296585 118 14021ft 227kts
18-Mar-20 18:06 34.247312 -117.230228 118 14026ft 227kts
18-Mar-20 18:07 34.216345 -117.163879 118 14027ft 227kts
18-Mar-20 18:08 34.185341 -117.097529 118 14027ft 227kts
18-Mar-20 18:09 34.154257 -117.031135 118 14028ft 227kts
18-Mar-20 18:10 34.123163 -116.964826 118 14028ft 227kts
18-Mar-20 18:11 34.091930 -116.898315 118 14028ft 227kts
18-Mar-20 18:12 34.060697 -116.831977 118 14023ft 227kts
18-Mar-20 18:13 34.029365 -116.765593 119 13708ft 228kts
18-Mar-20 18:14 33.998669 -116.700749 119 12222ft 220kts
18-Mar-20 18:15 33.969219 -116.638559 119 11021ft 202kts
18-Mar-20 18:16 33.942584 -116.582571 119 10138ft 194kts
18-Mar-20 18:17 33.916195 -116.526991 120 9156ft 192kts
18-Mar-20 18:18 33.890113 -116.472143 120 8171ft 189kts
18-Mar-20 18:19 33.864809 -116.417605 118 7180ft 186kts
18-Mar-20 18:20 33.840984 -116.361358 117 6185ft 193kts
18-Mar-20 18:21 33.817430 -116.305717 117 5998ft 184kts
18-Mar-20 18:22 33.793463 -116.249279 116 5992ft 192kts
18-Mar-20 18:23 33.754952 -116.204205 157 5142ft 195kts
18-Mar-20 18:24 33.703195 -116.199276 197 4129ft 186kts
18-Mar-20 18:25 33.661946 -116.231337 234 3982ft 174kts
18-Mar-20 18:26 33.644702 -116.283686 268 3982ft 168kts
18-Mar-20 18:27 33.654621 -116.337155 299 3985ft 165kts
18-Mar-20 18:28 33.686878 -116.376072 321 3870ft 168kts
18-Mar-20 18:29 33.719890 -116.406412 319 3056ft 134kts
18-Mar-20 18:30 33.745238 -116.429937 318 2398ft 109kts
18-Mar-20 18:31 33.769312 -116.452142 319 1796ft 107kts
18-Mar-20 18:32 33.788961 -116.470649 314 1286ft 80kts
18-Mar-20 18:33 33.806536 -116.486969 319 856ft 80kts
18-Mar-20 18:34 33.824820 -116.503348 322 410ft 59kts
18-Mar-20 18:35 33.828518 -116.508284 213 425ft 8kts
18-Mar-20 18:36 33.826430 -116.506846 162 417ft 13kts
18-Mar-20 18:37 33.826110 -116.508139 268 418ft 0kts
18-Mar-20 18:38 33.826110 -116.508139 268 418ft 0kts
18-Mar-20 18:39 33.826110 -116.508139 268 418ft 0kts
18-Mar-20 18:40 33.826110 -116.508139 268 418ft 0kts
18-Mar-20 18:41 33.826110 -116.508139 268 418ft 0kts

Navigation Log

Ident Type
Flight plan parsing failed, navigation log unavailable